Time;durP1;ratioP1;P1;durP2;ratioP2;P2;SDS_P1;SDS_P2;PMS_P1;PMS_P2;Temp;Humidity;BMP_temperature;BMP_pressure;BME280_temperature;BME280_humidity;BME280_pressure;Samples;Min_cycle;Max_cycle;Signal;HPM_P1;HPM_P2
2022/07/05 00:01:06;;;;;;;15.57;7.90;;;742.50;1664.00;;;;;;5121854;27;20054;-76
2022/07/05 00:03:32;;;;;;;17.98;8.05;;;742.40;1664.00;;;;;;5105309;27;20023;-75
2022/07/05 00:05:58;;;;;;;20.35;8.27;;;742.50;1638.40;;;;;;5104466;27;20035;-76
2022/07/05 00:08:25;;;;;;;20.35;9.32;;;742.40;1664.00;;;;;;5103579;27;20136;-76
2022/07/05 00:10:50;;;;;;;17.60;8.15;;;717.70;1638.40;;;;;;5123862;27;20496;-75
2022/07/05 00:13:16;;;;;;;19.88;8.13;;;717.70;1664.00;;;;;;5104324;27;20027;-75
2022/07/05 00:15:42;;;;;;;19.42;8.35;;;717.70;1664.00;;;;;;5121881;27;20476;-76
2022/07/05 00:18:08;;;;;;;17.40;7.68;;;717.60;1664.00;;;;;;5105652;27;20022;-75
2022/07/05 00:20:34;;;;;;;20.05;8.95;;;717.50;1689.60;;;;;;5103462;28;20517;-76
2022/07/05 00:23:00;;;;;;;17.25;8.65;;;717.50;1689.60;;;;;;5103441;27;20042;-76
2022/07/05 00:25:25;;;;;;;24.52;8.68;;;717.50;1689.60;;;;;;5105061;27;20404;-76
2022/07/05 00:27:53;;;;;;;15.35;8.98;;;717.60;1689.60;;;;;;5121502;27;20031;-76
2022/07/05 00:30:19;;;;;;;19.15;8.63;;;717.50;1715.20;;;;;;5104584;27;20019;-75
2022/07/05 00:32:44;;;;;;;21.30;9.27;;;717.50;1740.80;;;;;;5104772;27;20940;-76
2022/07/05 00:35:10;;;;;;;13.55;8.85;;;717.50;1740.80;;;;;;5103212;28;20519;-75
2022/07/05 00:37:36;;;;;;;15.15;8.02;;;717.40;1740.80;;;;;;5123032;27;20019;-76
2022/07/05 00:40:04;;;;;;;18.30;8.10;;;717.40;1740.80;;;;;;5122943;27;20047;-75
2022/07/05 00:42:29;;;;;;;18.48;8.75;;;717.40;1740.80;;;;;;5102915;27;20043;-75
2022/07/05 00:44:55;;;;;;;16.52;8.35;;;717.20;1740.80;;;;;;5123462;27;20469;-75
2022/07/05 00:47:21;;;;;;;15.32;7.82;;;717.40;1715.20;;;;;;5122189;27;20031;-75
2022/07/05 00:49:46;;;;;;;16.92;7.78;;;717.20;1740.80;;;;;;5121442;27;20019;-75
2022/07/05 00:52:12;;;;;;;15.38;8.13;;;717.20;1766.40;;;;;;5123503;27;20540;-76
2022/07/05 00:54:39;;;;;;;17.73;6.85;;;717.00;1740.80;;;;;;5094927;28;20024;-76
2022/07/05 00:57:06;;;;;;;15.32;6.75;;;717.10;1715.20;;;;;;5103035;28;20047;-75
2022/07/05 00:59:32;;;;;;;10.85;6.75;;;717.10;1689.60;;;;;;5104606;28;20031;-76
2022/07/05 01:01:58;;;;;;;17.05;7.15;;;717.10;1715.20;;;;;;5124543;28;20496;-76
2022/07/05 01:04:24;;;;;;;13.18;7.18;;;717.10;1689.60;;;;;;5113920;28;20092;-76
2022/07/05 01:06:51;;;;;;;20.48;6.30;;;717.10;1715.20;;;;;;5108313;28;20094;-75
2022/07/05 01:09:19;;;;;;;14.75;6.65;;;717.10;1766.40;;;;;;5122782;28;20041;-76
2022/07/05 01:11:47;;;;;;;13.90;7.22;;;717.20;1766.40;;;;;;5122678;28;20023;-76
2022/07/05 01:14:17;;;;;;;17.00;8.00;;;717.20;1792.00;;;;;;5102915;28;20125;-75
2022/07/05 01:16:44;;;;;;;15.80;7.53;;;717.10;1817.60;;;;;;5121896;28;20019;-75
2022/07/05 01:19:11;;;;;;;17.83;7.90;;;717.00;1817.60;;;;;;5123260;28;20020;-75
2022/07/05 01:21:44;;;;;;;14.55;7.85;;;717.00;1843.20;;;;;;5124190;28;20023;-76
2022/07/05 01:24:11;;;;;;;14.73;6.82;;;716.90;1868.80;;;;;;5101335;28;20039;-76
2022/07/05 01:26:39;;;;;;;9.93;7.13;;;716.90;1894.40;;;;;;5098004;28;20042;-76
2022/07/05 01:29:06;;;;;;;14.20;7.07;;;717.00;1868.80;;;;;;5101599;28;20020;-75
2022/07/05 01:31:31;;;;;;;16.65;6.72;;;716.90;1843.20;;;;;;5099932;28;20047;-76
2022/07/05 01:33:58;;;;;;;15.52;7.13;;;716.80;1868.80;;;;;;5121085;28;20152;-75
2022/07/05 01:36:24;;;;;;;19.90;7.95;;;716.80;1894.40;;;;;;5103732;28;20023;-76
2022/07/05 01:38:50;;;;;;;11.63;7.22;;;716.80;1945.60;;;;;;5104405;28;20028;-75
2022/07/05 01:41:16;;;;;;;18.38;7.88;;;692.10;1996.80;;;;;;5120855;28;20058;-76
2022/07/05 01:43:42;;;;;;;22.00;8.23;;;692.10;2073.60;;;;;;5122055;28;20043;-75
2022/07/05 01:46:09;;;;;;;21.30;8.13;;;691.90;2124.80;;;;;;5122359;28;20125;-76
2022/07/05 01:48:37;;;;;;;10.05;7.25;;;691.80;2176.00;;;;;;5120613;28;20012;-75
2022/07/05 01:51:26;;;;;;;14.73;8.55;;;691.60;2201.60;;;;;;5122189;28;20019;-76
2022/07/05 01:53:53;;;;;;;11.85;8.10;;;691.60;2073.60;;;;;;5103437;28;20038;-75
2022/07/05 01:56:19;;;;;;;14.38;8.25;;;691.60;1996.80;;;;;;5099339;28;20043;-76
2022/07/05 01:58:46;;;;;;;15.32;7.70;;;691.50;2048.00;;;;;;5103549;28;20012;-76
2022/07/05 02:01:12;;;;;;;16.73;7.43;;;691.40;2073.60;;;;;;5122380;28;20481;-75
2022/07/05 02:03:40;;;;;;;14.88;7.30;;;691.50;2073.60;;;;;;5118115;28;20020;-76
2022/07/05 02:06:08;;;;;;;17.15;6.95;;;691.40;1971.20;;;;;;5121509;28;20028;-76
2022/07/05 02:08:34;;;;;;;14.50;7.28;;;691.60;1920.00;;;;;;5122548;28;20051;-75
2022/07/05 02:11:00;;;;;;;14.20;6.22;;;691.60;1945.60;;;;;;5124445;27;20074;-76
2022/07/05 02:13:25;;;;;;;15.38;6.82;;;691.50;1945.60;;;;;;5125426;27;20038;-75
2022/07/05 02:15:51;;;;;;;12.57;6.78;;;691.20;1971.20;;;;;;5110443;27;20046;-76
2022/07/05 02:18:17;;;;;;;13.60;6.57;;;666.30;1996.80;;;;;;5108256;27;20065;-75
2022/07/05 02:20:43;;;;;;;9.07;6.28;;;666.10;2048.00;;;;;;5125808;27;20086;-76
2022/07/05 02:23:09;;;;;;;18.10;6.38;;;665.70;2073.60;;;;;;5133636;27;20048;-76
2022/07/05 02:25:35;;;;;;;20.15;6.07;;;640.60;2099.20;;;;;;5126608;27;20113;-75
2022/07/05 02:28:01;;;;;;;10.95;5.38;;;640.40;2150.40;;;;;;5126820;27;20145;-75
2022/07/05 02:30:27;;;;;;;16.27;5.63;;;640.20;2176.00;;;;;;5132511;27;20098;-75
2022/07/05 02:32:53;;;;;;;17.02;6.10;;;640.10;2201.60;;;;;;5123955;27;20016;-75
2022/07/05 02:35:19;;;;;;;14.85;5.82;;;615.30;2252.80;;;;;;5107390;27;20030;-75
2022/07/05 02:37:44;;;;;;;17.10;5.88;;;615.30;2252.80;;;;;;5106042;27;20011;-76
2022/07/05 02:40:13;;;;;;;14.40;6.47;;;615.30;2252.80;;;;;;5134787;27;20027;-76
2022/07/05 02:42:39;;;;;;;14.68;5.93;;;640.10;2227.20;;;;;;5131696;27;20023;-75
2022/07/05 02:45:06;;;;;;;15.77;5.82;;;640.00;2252.80;;;;;;5123786;27;20023;-76
2022/07/05 02:47:35;;;;;;;14.23;5.20;;;640.40;2201.60;;;;;;5105712;27;20503;-75
2022/07/05 02:50:19;;;;;;;10.40;4.63;;;640.50;2201.60;;;;;;5106706;27;20019;-75
2022/07/05 02:52:44;;;;;;;15.75;5.13;;;640.00;2304.00;;;;;;5117763;27;20396;-76
2022/07/05 02:55:10;;;;;;;9.48;4.85;;;640.10;2304.00;;;;;;5105793;27;20088;-76
2022/07/05 02:57:39;;;;;;;9.07;4.53;;;640.50;2252.80;;;;;;5107047;27;20030;-76
2022/07/05 03:00:06;;;;;;;13.50;5.20;;;640.50;2278.40;;;;;;5103193;27;20081;-75
2022/07/05 03:02:32;;;;;;;8.75;4.57;;;640.40;2278.40;;;;;;5123747;27;20007;-76
2022/07/05 03:04:58;;;;;;;14.07;4.95;;;640.20;2304.00;;;;;;5107245;27;20437;-76
2022/07/05 03:07:23;;;;;;;12.77;5.38;;;640.00;2380.80;;;;;;5123152;27;20028;-76
2022/07/05 03:09:49;;;;;;;7.97;4.50;;;640.00;2406.40;;;;;;5105914;27;20050;-75
2022/07/05 03:12:15;;;;;;;11.52;4.75;;;640.20;2380.80;;;;;;5106291;27;20493;-76
2022/07/05 03:14:40;;;;;;;13.32;5.35;;;640.00;2406.40;;;;;;5122953;27;20019;-75
2022/07/05 03:17:06;;;;;;;7.85;4.72;;;615.20;2432.00;;;;;;5124754;27;20023;-76
2022/07/05 03:19:32;;;;;;;12.77;5.35;;;615.20;2432.00;;;;;;5124141;27;20018;-75
2022/07/05 03:21:58;;;;;;;11.27;4.97;;;640.00;2432.00;;;;;;5122934;27;20032;-75
2022/07/05 03:24:24;;;;;;;11.50;5.47;;;615.20;2432.00;;;;;;5119925;27;20080;-76
2022/07/05 03:26:49;;;;;;;12.38;5.80;;;615.10;2432.00;;;;;;5124142;27;20038;-75
2022/07/05 03:29:15;;;;;;;17.17;5.60;;;640.10;2432.00;;;;;;5124336;27;20020;-75
2022/07/05 03:31:41;;;;;;;13.07;4.90;;;640.20;2432.00;;;;;;5104383;27;20072;-75
2022/07/05 03:34:07;;;;;;;10.10;5.57;;;615.30;2432.00;;;;;;5130799;27;20103;-76
2022/07/05 03:36:32;;;;;;;12.00;6.20;;;640.10;2432.00;;;;;;5133914;27;20079;-76
2022/07/05 03:38:58;;;;;;;12.75;5.40;;;640.10;2432.00;;;;;;5107070;27;20519;-76
2022/07/05 03:41:24;;;;;;;12.98;5.60;;;615.20;2432.00;;;;;;5103895;27;20053;-75
2022/07/05 03:43:50;;;;;;;13.98;5.82;;;615.30;2432.00;;;;;;5123936;27;20476;-75
2022/07/05 03:46:15;;;;;;;13.65;6.70;;;615.20;2432.00;;;;;;5123833;27;20039;-75
2022/07/05 03:48:41;;;;;;;16.92;5.88;;;615.20;2432.00;;;;;;5122288;27;20016;-75
2022/07/05 03:51:07;;;;;;;18.77;6.38;;;615.20;2432.00;;;;;;5124110;27;20529;-75
2022/07/05 03:53:32;;;;;;;11.07;6.05;;;615.30;2432.00;;;;;;5123350;27;20047;-75
2022/07/05 03:55:58;;;;;;;15.25;5.80;;;615.30;2432.00;;;;;;5103881;27;20050;-75
2022/07/05 03:58:24;;;;;;;10.68;5.72;;;615.30;2432.00;;;;;;5106055;27;20110;-75
2022/07/05 04:00:49;;;;;;;15.95;5.97;;;640.00;2432.00;;;;;;5110757;27;20030;-75
2022/07/05 04:03:15;;;;;;;15.70;6.82;;;640.00;2432.00;;;;;;5123610;27;20461;-76
2022/07/05 04:05:41;;;;;;;13.57;6.43;;;640.20;2432.00;;;;;;5121748;27;20119;-75
2022/07/05 04:08:07;;;;;;;13.77;6.40;;;640.60;2432.00;;;;;;5104829;27;20027;-76
2022/07/05 04:10:33;;;;;;;10.55;6.00;;;640.80;2432.00;;;;;;5122909;27;20024;-76
2022/07/05 04:12:58;;;;;;;11.27;5.95;;;665.60;2432.00;;;;;;5122278;27;20023;-75
2022/07/05 04:15:24;;;;;;;12.95;5.75;;;665.80;2432.00;;;;;;5124015;27;20015;-72
2022/07/05 04:17:53;;;;;;;15.93;5.85;;;665.90;2432.00;;;;;;5122063;27;20469;-75
2022/07/05 04:20:21;;;;;;;20.17;6.20;;;666.00;2406.40;;;;;;5103825;27;20023;-75
2022/07/05 04:22:47;;;;;;;12.20;6.07;;;666.00;2432.00;;;;;;5119070;27;20482;-76
2022/07/05 04:25:16;;;;;;;12.50;5.95;;;666.00;2432.00;;;;;;5103674;27;20038;-77
2022/07/05 04:27:42;;;;;;;13.90;6.40;;;666.00;2432.00;;;;;;5123613;27;20098;-76
2022/07/05 04:30:09;;;;;;;13.48;6.65;;;666.00;2432.00;;;;;;5119304;27;20106;-75
2022/07/05 04:32:35;;;;;;;12.70;5.90;;;666.20;2406.40;;;;;;5121906;27;20026;-74
2022/07/05 04:35:00;;;;;;;14.23;6.43;;;666.30;2380.80;;;;;;5123480;27;20023;-76
2022/07/05 04:37:27;;;;;;;12.68;5.78;;;666.30;2432.00;;;;;;5121631;27;20020;-76
2022/07/05 04:39:52;;;;;;;11.77;5.88;;;666.40;2432.00;;;;;;5104314;27;20105;-77
2022/07/05 04:42:18;;;;;;;11.52;6.28;;;666.40;2432.00;;;;;;5102565;28;20098;-76
2022/07/05 04:44:44;;;;;;;10.63;6.15;;;666.30;2432.00;;;;;;5094189;28;20038;-77
2022/07/05 04:47:09;;;;;;;17.15;7.80;;;666.30;2432.00;;;;;;5080125;28;20444;-76
2022/07/05 04:49:35;;;;;;;15.50;6.40;;;666.50;2432.00;;;;;;5112260;28;20024;-75
2022/07/05 04:52:01;;;;;;;10.57;6.70;;;691.20;2432.00;;;;;;5112616;28;20094;-77
2022/07/05 04:54:27;;;;;;;10.93;7.13;;;666.50;2432.00;;;;;;5087104;28;20073;-78
2022/07/05 04:56:52;;;;;;;14.13;7.55;;;666.50;2432.00;;;;;;5086899;28;20154;-76
2022/07/05 04:59:18;;;;;;;9.38;6.60;;;691.20;2432.00;;;;;;5094015;28;20096;-76
2022/07/05 05:01:44;;;;;;;12.48;6.50;;;691.30;2432.00;;;;;;5106717;28;20067;-75
2022/07/05 05:04:09;;;;;;;13.27;6.35;;;691.30;2432.00;;;;;;5112179;28;20392;-77
2022/07/05 05:06:35;;;;;;;11.07;6.80;;;691.40;2432.00;;;;;;5088493;28;20032;-76
2022/07/05 05:09:01;;;;;;;13.95;5.78;;;691.50;2432.00;;;;;;5103597;28;20011;-77
2022/07/05 05:11:27;;;;;;;13.82;6.38;;;691.60;2432.00;;;;;;5079726;28;20469;-76
2022/07/05 05:13:52;;;;;;;12.55;6.88;;;691.60;2355.20;;;;;;5084710;28;20362;-74
2022/07/05 05:16:18;;;;;;;14.57;6.60;;;691.60;2406.40;;;;;;5105933;28;20042;-76
2022/07/05 05:18:44;;;;;;;8.85;6.68;;;691.60;2406.40;;;;;;5099224;28;20538;-76
2022/07/05 05:21:09;;;;;;;14.85;6.50;;;691.60;2380.80;;;;;;5112025;28;20111;-75
2022/07/05 05:23:35;;;;;;;16.98;7.22;;;691.70;2304.00;;;;;;5112163;28;20020;-76
2022/07/05 05:26:01;;;;;;;15.02;7.07;;;691.90;2278.40;;;;;;5093655;28;20130;-77
2022/07/05 05:28:26;;;;;;;11.85;6.53;;;691.90;2201.60;;;;;;5111790;28;20496;-76
2022/07/05 05:30:52;;;;;;;13.65;6.50;;;691.90;2176.00;;;;;;5102632;28;20024;-77
2022/07/05 05:33:18;;;;;;;12.07;6.00;;;692.10;2150.40;;;;;;5106969;28;20098;-77
2022/07/05 05:35:44;;;;;;;12.15;5.50;;;692.10;2124.80;;;;;;5086519;28;20025;-76
2022/07/05 05:38:09;;;;;;;13.98;5.85;;;716.80;2073.60;;;;;;5100359;28;20474;-75
2022/07/05 05:40:37;;;;;;;10.13;6.07;;;716.90;2022.40;;;;;;5078795;28;20020;-78
2022/07/05 05:43:03;;;;;;;11.25;5.50;;;717.00;1971.20;;;;;;5082172;28;20473;-76
2022/07/05 05:45:29;;;;;;;15.43;5.28;;;716.80;1945.60;;;;;;5094188;28;20032;-77
2022/07/05 05:47:59;;;;;;;10.77;5.40;;;717.10;1945.60;;;;;;5097203;28;20031;-76
2022/07/05 05:50:27;;;;;;;18.23;5.70;;;717.20;1920.00;;;;;;5097243;28;20032;-77
2022/07/05 05:52:53;;;;;;;22.63;6.40;;;717.40;1920.00;;;;;;5097437;28;20035;-76
2022/07/05 05:55:20;;;;;;;16.73;5.60;;;717.40;1894.40;;;;;;5101092;28;20040;-77
2022/07/05 05:57:47;;;;;;;17.42;5.85;;;717.50;1894.40;;;;;;5111690;27;20154;-76
2022/07/05 06:00:13;;;;;;;16.02;5.10;;;717.50;1920.00;;;;;;5088351;28;20043;-77
2022/07/05 06:02:39;;;;;;;12.30;4.93;;;717.60;1920.00;;;;;;5091971;28;20038;-76
2022/07/05 06:05:05;;;;;;;20.52;6.85;;;717.60;1868.80;;;;;;5114262;28;20016;-79
2022/07/05 06:07:31;;;;;;;10.05;5.47;;;717.70;1894.40;;;;;;5116028;28;20039;-81
2022/07/05 06:09:57;;;;;;;13.23;6.10;;;742.40;1945.60;;;;;;5097459;28;20019;-79
2022/07/05 06:12:23;;;;;;;12.93;5.43;;;717.70;1920.00;;;;;;5097534;28;20031;-79
2022/07/05 06:14:48;;;;;;;11.73;5.38;;;742.40;1945.60;;;;;;5082916;28;20024;-78
2022/07/05 06:17:14;;;;;;;11.23;5.47;;;742.50;1945.60;;;;;;5108938;28;20063;-79
2022/07/05 06:19:40;;;;;;;11.02;5.32;;;742.60;1945.60;;;;;;5097041;28;20027;-80
2022/07/05 06:22:05;;;;;;;12.63;5.80;;;742.70;1920.00;;;;;;5113972;28;20110;-79
2022/07/05 06:24:31;;;;;;;9.32;5.68;;;742.70;1894.40;;;;;;5113768;28;20038;-79
2022/07/05 06:26:57;;;;;;;14.00;5.45;;;742.80;1920.00;;;;;;5100752;28;20377;-78
2022/07/05 06:29:23;;;;;;;12.90;5.40;;;742.80;1843.20;;;;;;5096965;28;20031;-76
2022/07/05 06:31:48;;;;;;;11.68;5.50;;;742.90;1817.60;;;;;;5114850;28;20027;-78
2022/07/05 06:34:14;;;;;;;10.75;5.68;;;743.00;1817.60;;;;;;5087395;28;20097;-77
2022/07/05 06:36:40;;;;;;;15.85;6.03;;;743.00;1843.20;;;;;;5091009;28;20077;-78
2022/07/05 06:39:05;;;;;;;9.10;5.00;;;743.10;1817.60;;;;;;5090068;28;20057;-78
2022/07/05 06:41:31;;;;;;;11.18;5.93;;;743.20;1817.60;;;;;;5059570;28;20028;-76
2022/07/05 06:43:58;;;;;;;18.45;6.22;;;768.00;1792.00;;;;;;5099360;28;20465;-76
2022/07/05 06:46:23;;;;;;;10.40;5.15;;;768.10;1792.00;;;;;;5085130;28;20040;-77
2022/07/05 06:48:49;;;;;;;18.02;6.18;;;768.10;1740.80;;;;;;5092724;28;20091;-77
2022/07/05 06:51:15;;;;;;;12.80;5.60;;;768.20;1740.80;;;;;;5096344;28;20039;-76
2022/07/05 06:53:41;;;;;;;8.80;5.53;;;768.30;1817.60;;;;;;5114184;28;20019;-76
2022/07/05 06:56:06;;;;;;;9.15;5.13;;;768.40;1792.00;;;;;;5117165;27;20051;-76
2022/07/05 06:58:32;;;;;;;8.85;5.43;;;768.50;1715.20;;;;;;5107049;28;20393;-77
2022/07/05 07:00:58;;;;;;;12.40;5.45;;;768.60;1740.80;;;;;;5111835;28;20035;-77
2022/07/05 07:03:24;;;;;;;14.73;5.60;;;768.60;1766.40;;;;;;5082619;28;20024;-79
2022/07/05 07:05:50;;;;;;;13.55;5.70;;;768.60;1766.40;;;;;;5114270;28;20020;-77
2022/07/05 07:11:00;;;;;;;9.13;5.15;;;768.80;1740.80;;;;;;5114422;28;20112;-77
2022/07/05 07:13:26;;;;;;;12.00;6.05;;;768.90;1715.20;;;;;;5114071;27;20073;-81
2022/07/05 07:15:51;;;;;;;13.00;5.72;;;793.70;1740.80;;;;;;5105713;27;20024;-77
2022/07/05 07:18:17;;;;;;;9.90;5.55;;;793.70;1689.60;;;;;;5099497;27;20024;-76
2022/07/05 07:20:43;;;;;;;12.07;5.53;;;793.80;1689.60;;;;;;5125590;27;20476;-78
2022/07/05 07:23:09;;;;;;;10.07;5.53;;;794.10;1638.40;;;;;;5105011;27;20080;-78
2022/07/05 07:25:34;;;;;;;12.75;5.57;;;794.20;1612.80;;;;;;5104478;28;20073;-76
2022/07/05 07:28:00;;;;;;;8.93;5.47;;;794.20;1612.80;;;;;;5113973;27;20073;-77
2022/07/05 07:30:28;;;;;;;14.27;5.45;;;794.40;1612.80;;;;;;5081116;28;20501;-77
2022/07/05 07:32:54;;;;;;;10.55;5.82;;;794.40;1587.20;;;;;;5095395;28;20023;-77
2022/07/05 07:35:21;;;;;;;12.70;5.50;;;794.50;1587.20;;;;;;5095481;28;20031;-77
2022/07/05 07:37:47;;;;;;;16.75;5.28;;;794.50;1587.20;;;;;;5088251;28;20024;-79
2022/07/05 07:40:13;;;;;;;17.63;5.63;;;819.30;1561.60;;;;;;5107047;28;20119;-79
2022/07/05 07:42:39;;;;;;;14.00;6.68;;;819.60;1536.00;;;;;;5100683;27;20130;-81
2022/07/05 07:45:05;;;;;;;12.93;5.28;;;819.70;1561.60;;;;;;5106478;27;20030;-77
2022/07/05 07:47:35;;;;;;;15.75;5.85;;;819.80;1587.20;;;;;;5128752;27;20164;-79
2022/07/05 07:50:02;;;;;;;10.05;5.40;;;819.80;1587.20;;;;;;5109579;27;20060;-79
2022/07/05 07:52:30;;;;;;;12.55;6.00;;;819.80;1561.60;;;;;;5101879;27;20058;-79
2022/07/05 07:54:56;;;;;;;15.55;6.43;;;819.90;1561.60;;;;;;5123231;27;20026;-78
2022/07/05 07:57:22;;;;;;;10.30;5.40;;;819.90;1561.60;;;;;;5103626;27;20047;-85
2022/07/05 07:59:48;;;;;;;11.88;5.63;;;820.00;1587.20;;;;;;5105933;27;20023;-83
2022/07/05 08:02:13;;;;;;;14.52;6.70;;;820.10;1587.20;;;;;;5105066;27;20027;-79
2022/07/05 08:04:39;;;;;;;11.90;5.68;;;844.80;1612.80;;;;;;5106448;27;20438;-82
2022/07/05 08:07:05;;;;;;;14.20;6.78;;;844.90;1612.80;;;;;;5106552;27;20027;-80
2022/07/05 08:09:31;;;;;;;13.10;6.43;;;844.90;1612.80;;;;;;5107717;28;20068;-78
2022/07/05 08:11:56;;;;;;;8.90;6.30;;;845.00;1612.80;;;;;;5105129;27;20031;-83
2022/07/05 08:14:23;;;;;;;13.77;6.25;;;845.10;1587.20;;;;;;5103639;28;20076;-82
2022/07/05 08:16:49;;;;;;;13.00;5.97;;;845.10;1561.60;;;;;;5095126;28;20100;-78
2022/07/05 08:22:01;;;;;;;8.52;5.22;;;845.40;1484.80;;;;;;5115729;27;20497;-77
2022/07/05 08:24:27;;;;;;;8.93;4.93;;;845.40;1459.20;;;;;;5119104;27;20496;-77
2022/07/05 08:26:52;;;;;;;9.82;5.43;;;845.50;1382.40;;;;;;5124605;27;20039;-78
2022/07/05 08:29:18;;;;;;;22.85;6.03;;;845.60;1382.40;;;;;;5103900;27;20507;-80
2022/07/05 08:31:49;;;;;;;11.52;5.60;;;870.40;1408.00;;;;;;5105415;27;20029;-78
2022/07/05 08:34:17;;;;;;;9.65;5.10;;;870.50;1382.40;;;;;;5109894;27;20054;-79
2022/07/05 08:36:43;;;;;;;11.75;5.32;;;870.50;1331.20;;;;;;5101137;27;20027;-78
2022/07/05 08:39:09;;;;;;;9.65;5.72;;;870.50;1382.40;;;;;;5104350;27;20024;-78
2022/07/05 08:41:40;;;;;;;10.68;5.05;;;870.40;1356.80;;;;;;5105479;27;20016;-77
2022/07/05 08:44:08;;;;;;;10.70;5.63;;;870.40;1331.20;;;;;;5101547;27;20023;-77
2022/07/05 08:46:37;;;;;;;12.90;5.63;;;870.50;1331.20;;;;;;5122017;27;20054;-78
2022/07/05 08:49:04;;;;;;;10.68;5.63;;;870.50;1356.80;;;;;;5124014;27;20015;-78
2022/07/05 08:51:33;;;;;;;5.68;4.38;;;870.50;1356.80;;;;;;5093213;27;20059;-77
2022/07/05 08:54:00;;;;;;;7.05;4.43;;;870.50;1331.20;;;;;;5103708;28;20392;-78
2022/07/05 08:56:26;;;;;;;8.80;5.32;;;870.60;1305.60;;;;;;5103840;28;20131;-78
2022/07/05 08:58:51;;;;;;;12.68;5.03;;;870.70;1305.60;;;;;;5102980;28;20440;-78
2022/07/05 09:01:18;;;;;;;12.23;4.75;;;870.70;1254.40;;;;;;5104585;28;20034;-78
2022/07/05 09:03:49;;;;;;;13.30;5.03;;;870.70;1280.00;;;;;;5128199;28;20015;-78
2022/07/05 09:06:20;;;;;;;8.82;4.30;;;870.90;1254.40;;;;;;5110774;28;20028;-78
2022/07/05 09:08:50;;;;;;;8.45;4.45;;;871.00;1280.00;;;;;;5112449;28;20101;-77
2022/07/05 09:11:16;;;;;;;10.32;4.03;;;871.10;1254.40;;;;;;5111981;28;20031;-78
2022/07/05 09:13:48;;;;;;;10.23;4.30;;;871.10;1228.80;;;;;;5112024;28;20023;-77
2022/07/05 09:16:14;;;;;;;13.23;4.22;;;871.10;1203.20;;;;;;5114955;28;20030;-76
2022/07/05 09:18:44;;;;;;;9.38;4.20;;;871.10;1177.60;;;;;;5124252;27;20091;-76
2022/07/05 09:21:26;;;;;;;8.63;4.22;;;871.10;1203.20;;;;;;5130672;27;20026;-78
2022/07/05 09:24:00;;;;;;;12.00;4.00;;;896.10;1203.20;;;;;;5122144;27;20064;-79
2022/07/05 09:26:32;;;;;;;9.63;4.43;;;896.10;1203.20;;;;;;5125196;27;20035;-78
2022/07/05 09:28:58;;;;;;;8.75;4.05;;;896.20;1203.20;;;;;;5121390;27;20039;-81
2022/07/05 09:31:33;;;;;;;15.95;4.68;;;896.20;1228.80;;;;;;5106458;27;20030;-82
2022/07/05 09:34:10;;;;;;;6.65;4.03;;;896.30;1203.20;;;;;;5095212;28;20027;-79
2022/07/05 09:36:54;;;;;;;8.25;4.50;;;896.50;1177.60;;;;;;5115861;28;20495;-79
2022/07/05 09:39:29;;;;;;;11.40;5.05;;;896.60;1177.60;;;;;;5095041;28;20024;-79
2022/07/05 09:42:14;;;;;;;14.05;4.63;;;896.70;1177.60;;;;;;5115822;28;20023;-79
2022/07/05 09:44:45;;;;;;;30.08;6.95;;;896.90;1177.60;;;;;;5095775;28;20016;-80
2022/07/05 09:47:13;;;;;;;7.95;4.85;;;896.90;1152.00;;;;;;5115668;28;20511;-78
2022/07/05 09:49:51;;;;;;;11.25;5.05;;;921.70;1177.60;;;;;;5115744;28;20030;-78
2022/07/05 09:52:27;;;;;;;13.52;4.63;;;921.80;1152.00;;;;;;5097141;28;20465;-78
2022/07/05 09:55:10;;;;;;;9.57;4.35;;;921.80;1152.00;;;;;;5114888;28;20476;-77
2022/07/05 09:57:40;;;;;;;7.35;4.40;;;922.00;1152.00;;;;;;5096901;28;20038;-79
2022/07/05 10:00:08;;;;;;;13.10;5.00;;;922.00;1126.40;;;;;;5115200;28;20023;-77
2022/07/05 10:02:50;;;;;;;9.60;5.00;;;922.10;1152.00;;;;;;5097052;28;20110;-78
2022/07/05 10:05:24;;;;;;;8.20;4.85;;;922.30;1126.40;;;;;;5096375;28;20035;-79
2022/07/05 10:07:55;;;;;;;13.77;4.47;;;922.40;1126.40;;;;;;5097020;28;20040;-78
2022/07/05 10:10:23;;;;;;;9.43;5.03;;;922.50;1126.40;;;;;;5097287;28;20114;-78
2022/07/05 10:12:50;;;;;;;9.32;5.10;;;947.30;1126.40;;;;;;5097426;28;20028;-77
2022/07/05 10:15:18;;;;;;;11.52;4.82;;;947.20;1100.80;;;;;;5115109;28;20020;-77
2022/07/05 10:18:13;;;;;;;6.20;4.63;;;922.50;1100.80;;;;;;5097245;28;20020;-79
2022/07/05 10:20:45;;;;;;;8.93;4.30;;;947.40;1075.20;;;;;;5115143;28;20407;-79
2022/07/05 10:23:16;;;;;;;10.30;5.38;;;947.40;1049.60;;;;;;5086459;28;20024;-78
2022/07/05 10:25:44;;;;;;;6.60;4.00;;;947.50;1049.60;;;;;;5093885;28;20053;-77
2022/07/05 10:28:10;;;;;;;7.70;4.35;;;947.60;1024.00;;;;;;5096696;28;20045;-78
2022/07/05 10:30:37;;;;;;;11.35;4.40;;;947.90;1024.00;;;;;;5092370;28;20024;-77
2022/07/05 10:33:05;;;;;;;12.77;5.25;;;947.80;1024.00;;;;;;5105690;28;20023;-78
2022/07/05 10:35:31;;;;;;;6.53;4.20;;;947.90;1024.00;;;;;;5082379;28;20023;-79
2022/07/05 10:37:59;;;;;;;8.48;4.28;;;948.10;998.40;;;;;;5086525;28;20028;-77
2022/07/05 10:40:26;;;;;;;9.50;4.28;;;947.90;998.40;;;;;;5110333;28;20411;-78
2022/07/05 10:42:55;;;;;;;10.13;5.43;;;948.00;998.40;;;;;;5096135;28;20107;-77
2022/07/05 10:45:35;;;;;;;7.07;4.20;;;947.60;998.40;;;;;;5114141;28;20024;-77
2022/07/05 10:48:10;;;;;;;5.03;3.78;;;948.00;998.40;;;;;;5115360;27;20038;-77
2022/07/05 10:50:55;;;;;;;;;;;948.10;947.20;;;;;;5120037;27;20094;-76
2022/07/05 10:53:45;;;;;;;8.38;4.45;;;973.00;972.80;;;;;;5095051;28;19907;-78
2022/07/05 10:56:12;;;;;;;6.22;3.92;;;973.10;972.80;;;;;;5010893;28;20182;-75
2022/07/05 10:58:39;;;;;;;6.50;3.80;;;973.20;972.80;;;;;;4995556;28;20562;-77
2022/07/05 11:01:19;;;;;;;6.50;3.88;;;973.40;972.80;;;;;;5011700;28;20042;-78
2022/07/05 11:04:06;;;;;;;8.00;4.32;;;973.20;947.20;;;;;;4995538;28;20049;-77
2022/07/05 11:06:39;;;;;;;8.70;4.05;;;972.80;998.40;;;;;;5011324;28;20046;-77
2022/07/05 11:09:10;;;;;;;7.70;4.43;;;973.20;947.20;;;;;;4994649;28;20438;-78
2022/07/05 11:11:42;;;;;;;12.30;4.35;;;973.40;972.80;;;;;;5009430;28;20018;-76
2022/07/05 11:14:23;;;;;;;8.52;3.58;;;973.30;921.60;;;;;;4994672;28;20030;-79
2022/07/05 11:17:11;;;;;;;5.80;3.03;;;973.30;921.60;;;;;;5002778;28;20108;-76
2022/07/05 11:19:59;;;;;;;5.03;3.20;;;973.60;921.60;;;;;;5011698;28;20041;-80
2022/07/05 11:22:25;;;;;;;7.32;3.75;;;973.60;921.60;;;;;;5013238;28;20022;-81
2022/07/05 11:24:51;;;;;;;11.15;3.78;;;973.70;896.00;;;;;;4994360;28;20036;-81
2022/07/05 11:27:17;;;;;;;5.03;3.17;;;973.70;921.60;;;;;;4995217;28;20050;-82
2022/07/05 11:29:47;;;;;;;8.75;3.60;;;973.20;896.00;;;;;;5011438;28;20053;-78
2022/07/05 11:32:21;;;;;;;7.90;3.85;;;973.10;921.60;;;;;;5012233;28;20036;-79
2022/07/05 11:34:52;;;;;;;4.13;3.28;;;972.80;947.20;;;;;;5096004;28;20019;-81
2022/07/05 11:37:19;;;;;;;11.60;3.70;;;948.10;947.20;;;;;;5093038;28;20433;-81
2022/07/05 11:39:48;;;;;;;16.70;4.10;;;947.90;972.80;;;;;;5095118;28;20023;-79
2022/07/05 11:42:21;;;;;;;11.88;4.10;;;947.80;1152.00;;;;;;5095270;28;20026;-79
2022/07/05 11:44:50;;;;;;;11.38;4.75;;;947.80;1203.20;;;;;;5095655;28;20030;-79
2022/07/05 11:47:20;;;;;;;12.82;4.65;;;947.70;1228.80;;;;;;5113886;28;20032;-82
2022/07/05 11:49:56;;;;;;;9.25;3.92;;;947.60;1228.80;;;;;;5095878;28;20488;-81
2022/07/05 11:52:31;;;;;;;17.52;4.50;;;947.70;1228.80;;;;;;5095837;28;20092;-81
2022/07/05 11:54:58;;;;;;;10.73;3.92;;;947.60;1203.20;;;;;;5113308;28;20019;-83
2022/07/05 11:57:23;;;;;;;11.70;4.30;;;947.70;1203.20;;;;;;5113669;28;20107;-81
2022/07/05 11:59:50;;;;;;;13.48;4.13;;;947.60;1203.20;;;;;;5095376;28;20115;-81
2022/07/05 12:02:16;;;;;;;8.75;4.07;;;947.80;1203.20;;;;;;5095270;28;20477;-81
2022/07/05 12:04:53;;;;;;;18.15;4.50;;;947.60;1177.60;;;;;;5095138;28;20103;-82
2022/07/05 12:07:28;;;;;;;10.40;3.97;;;947.90;1177.60;;;;;;5097494;27;20050;-80
2022/07/05 12:12:44;;;;;;;6.22;3.90;;;948.10;1152.00;;;;;;5111641;28;20115;-84
2022/07/05 12:15:18;;;;;;;9.55;4.68;;;948.00;1177.60;;;;;;5094815;28;20031;-83
2022/07/05 12:17:49;;;;;;;10.15;4.00;;;972.80;1177.60;;;;;;5095672;28;20455;-83
2022/07/05 12:20:23;;;;;;;8.00;3.70;;;973.10;1177.60;;;;;;5095458;28;20016;-85
2022/07/05 12:22:49;;;;;;;9.35;4.60;;;973.00;1152.00;;;;;;5095196;28;20118;-84